Time;durP1;ratioP1;P1;durP2;ratioP2;P2;SDS_P1;SDS_P2;PMS_P1;PMS_P2;Temp;Humidity;BMP_temperature;BMP_pressure;BME280_temperature;BME280_humidity;BME280_pressure;Samples;Min_cycle;Max_cycle;Signal;HPM_P1;HPM_P2
2022/04/17 00:01:30;;;;;;;9.13;6.32;;;11.20;45.80;;;;;;5113646;28;20020;-68
2022/04/17 00:03:55;;;;;;;10.85;6.70;;;11.20;46.80;;;;;;5113626;28;20069;-68
2022/04/17 00:06:21;;;;;;;11.05;7.20;;;11.20;46.30;;;;;;5113592;28;20032;-68
2022/04/17 00:08:46;;;;;;;11.68;6.80;;;11.30;46.60;;;;;;5113579;28;20036;-68
2022/04/17 00:11:12;;;;;;;9.52;6.55;;;11.20;45.80;;;;;;5113531;28;20032;-68
2022/04/17 00:13:38;;;;;;;11.23;6.78;;;11.30;46.10;;;;;;5113599;28;20033;-68
2022/04/17 00:16:04;;;;;;;11.55;7.38;;;11.30;46.10;;;;;;5113220;28;20052;-68
2022/04/17 00:18:29;;;;;;;9.90;6.53;;;11.30;46.30;;;;;;5095613;28;20042;-68
2022/04/17 00:20:55;;;;;;;10.55;7.18;;;11.30;46.60;;;;;;5095472;28;20024;-68
2022/04/17 00:23:20;;;;;;;10.30;7.60;;;11.30;46.70;;;;;;5113361;28;20046;-68
2022/04/17 00:25:47;;;;;;;10.75;7.53;;;11.20;46.60;;;;;;5113463;28;20032;-69
2022/04/17 00:28:13;;;;;;;14.27;8.57;;;11.20;46.60;;;;;;5113381;28;20024;-67
2022/04/17 00:30:38;;;;;;;12.55;8.00;;;11.20;46.50;;;;;;5113308;28;20032;-67
2022/04/17 00:33:04;;;;;;;10.18;7.47;;;11.10;46.70;;;;;;5113322;28;20020;-67
2022/04/17 00:35:30;;;;;;;11.52;7.53;;;11.10;46.70;;;;;;5113174;28;20068;-67
2022/04/17 00:37:55;;;;;;;13.25;7.97;;;11.10;46.60;;;;;;5113234;28;20024;-67
2022/04/17 00:40:21;;;;;;;13.40;8.63;;;11.10;46.60;;;;;;5113226;28;20021;-67
2022/04/17 00:42:48;;;;;;;13.85;8.50;;;11.10;46.60;;;;;;5095303;28;20020;-68
2022/04/17 00:45:14;;;;;;;13.45;8.05;;;11.00;46.60;;;;;;5113191;28;20046;-67
2022/04/17 00:47:40;;;;;;;13.80;8.93;;;11.00;46.80;;;;;;5113162;28;20024;-67
2022/04/17 00:50:07;;;;;;;13.90;8.57;;;10.80;46.60;;;;;;5113140;28;20031;-67
2022/04/17 00:52:33;;;;;;;11.80;8.05;;;10.80;46.70;;;;;;5115323;28;20066;-67
2022/04/17 00:55:03;;;;;;;13.35;8.45;;;10.80;46.90;;;;;;5117121;28;20028;-67
2022/04/17 00:57:30;;;;;;;15.20;8.75;;;10.80;46.80;;;;;;5117120;28;20020;-67
2022/04/17 00:59:56;;;;;;;13.25;9.15;;;10.80;46.80;;;;;;5099041;28;20028;-68
2022/04/17 01:02:22;;;;;;;12.68;8.60;;;10.70;46.70;;;;;;5117009;28;20031;-68
2022/04/17 01:04:48;;;;;;;15.07;8.52;;;10.70;46.60;;;;;;5117008;28;20079;-68
2022/04/17 01:07:17;;;;;;;13.13;8.70;;;10.70;46.70;;;;;;5116935;28;20036;-67
2022/04/17 01:09:45;;;;;;;12.90;8.15;;;10.70;46.60;;;;;;5116866;28;20024;-67
2022/04/17 01:12:13;;;;;;;13.32;9.40;;;10.70;46.90;;;;;;5116855;28;20028;-67
2022/04/17 01:14:40;;;;;;;15.80;9.02;;;10.60;46.80;;;;;;5098600;28;20048;-68
2022/04/17 01:17:07;;;;;;;14.98;9.73;;;10.60;46.70;;;;;;5116747;28;20028;-67
2022/04/17 01:19:37;;;;;;;14.02;9.52;;;10.50;46.60;;;;;;5116714;28;20111;-67
2022/04/17 01:22:07;;;;;;;14.10;8.93;;;10.50;46.50;;;;;;5116676;28;20017;-67
2022/04/17 01:27:21;;;;;;;12.48;7.80;;;10.40;46.40;;;;;;5116705;28;20032;-67
2022/04/17 01:29:47;;;;;;;13.07;8.40;;;10.20;46.20;;;;;;5116429;28;20024;-67
2022/04/17 01:32:13;;;;;;;12.27;7.82;;;10.10;46.20;;;;;;5116448;28;20044;-68
2022/04/17 01:34:39;;;;;;;11.50;8.00;;;10.00;46.40;;;;;;5116290;28;20058;-66
2022/04/17 01:37:05;;;;;;;12.73;8.02;;;9.80;46.70;;;;;;5116379;28;20020;-67
2022/04/17 01:39:32;;;;;;;13.68;8.38;;;9.70;46.80;;;;;;5116320;28;20029;-68
2022/04/17 01:41:59;;;;;;;12.68;8.77;;;9.60;46.90;;;;;;5116316;28;20043;-67
2022/04/17 01:44:28;;;;;;;15.73;8.95;;;9.60;47.20;;;;;;5116230;28;20054;-67
2022/04/17 01:46:54;;;;;;;13.60;8.10;;;9.60;47.40;;;;;;5116187;28;20020;-68
2022/04/17 01:49:20;;;;;;;15.18;8.88;;;9.40;47.30;;;;;;5116123;28;20020;-68
2022/04/17 01:51:47;;;;;;;14.02;9.38;;;9.10;47.50;;;;;;5098066;28;20028;-68
2022/04/17 01:54:18;;;;;;;13.75;8.77;;;9.00;48.20;;;;;;5116020;28;20043;-67
2022/04/17 01:56:47;;;;;;;14.85;8.75;;;8.90;48.70;;;;;;5098052;28;20021;-67
2022/04/17 01:59:13;;;;;;;16.77;9.10;;;9.00;48.80;;;;;;5115915;28;20024;-67
2022/04/17 02:01:40;;;;;;;15.15;9.05;;;9.00;48.50;;;;;;5115865;28;20059;-67
2022/04/17 02:04:07;;;;;;;14.52;8.95;;;9.00;48.60;;;;;;5115271;28;20027;-67
2022/04/17 02:06:34;;;;;;;11.95;8.48;;;9.10;49.10;;;;;;5115782;28;20039;-68
2022/04/17 02:09:00;;;;;;;15.32;9.60;;;9.00;50.00;;;;;;5115736;28;20024;-67
2022/04/17 02:11:26;;;;;;;15.38;9.07;;;9.00;49.70;;;;;;5115706;28;20012;-67
2022/04/17 02:13:53;;;;;;;14.48;9.73;;;9.00;49.70;;;;;;5115471;28;20024;-68
2022/04/17 02:16:19;;;;;;;15.23;8.77;;;9.00;49.30;;;;;;5115604;28;20050;-67
2022/04/17 02:18:48;;;;;;;13.95;8.48;;;9.00;49.40;;;;;;5115546;28;20046;-68
2022/04/17 02:21:16;;;;;;;16.02;9.32;;;8.90;49.70;;;;;;5115521;28;20031;-67
2022/04/17 02:23:42;;;;;;;13.70;9.30;;;8.70;49.90;;;;;;5115493;28;20028;-67
2022/04/17 02:26:09;;;;;;;13.63;8.95;;;8.70;50.30;;;;;;5115466;28;20027;-68
2022/04/17 02:28:37;;;;;;;15.55;9.52;;;8.80;50.30;;;;;;5115312;28;20058;-68
2022/04/17 02:31:04;;;;;;;13.95;9.02;;;8.80;50.40;;;;;;5115345;28;20043;-68
2022/04/17 02:33:30;;;;;;;13.40;9.18;;;8.50;50.30;;;;;;5115292;28;20076;-68
2022/04/17 02:35:57;;;;;;;13.88;8.52;;;8.30;50.90;;;;;;5115116;28;20046;-68
2022/04/17 02:38:23;;;;;;;16.75;9.50;;;8.30;51.10;;;;;;5115174;28;20035;-66
2022/04/17 02:40:49;;;;;;;14.45;9.68;;;8.50;51.40;;;;;;5115122;28;20024;-67
2022/04/17 02:43:14;;;;;;;14.00;8.80;;;8.60;51.80;;;;;;5115050;28;20098;-67
2022/04/17 02:45:40;;;;;;;12.98;8.65;;;8.50;52.30;;;;;;5115036;28;20052;-68
2022/04/17 02:48:05;;;;;;;16.58;9.30;;;8.30;52.60;;;;;;5114986;28;20024;-67
2022/04/17 02:50:31;;;;;;;17.08;9.27;;;8.20;53.30;;;;;;5114959;28;20064;-67
2022/04/17 02:52:57;;;;;;;15.48;9.65;;;8.20;53.70;;;;;;5114911;28;20058;-67
2022/04/17 02:55:23;;;;;;;13.90;8.15;;;8.30;53.80;;;;;;5114776;28;20039;-67
2022/04/17 02:57:48;;;;;;;13.85;8.65;;;8.30;53.90;;;;;;5114809;28;20028;-67
2022/04/17 03:00:15;;;;;;;18.50;9.43;;;8.20;53.70;;;;;;5114467;28;20016;-67
2022/04/17 03:05:36;;;;;;;16.00;9.38;;;8.20;54.10;;;;;;5114914;28;20039;-68
2022/04/17 03:08:03;;;;;;;14.90;8.73;;;8.10;54.30;;;;;;5114620;28;20028;-68
2022/04/17 03:10:30;;;;;;;14.60;8.48;;;7.90;54.80;;;;;;5114564;28;20043;-67
2022/04/17 03:12:55;;;;;;;13.35;8.90;;;7.80;55.50;;;;;;5114518;28;20029;-67
2022/04/17 03:15:21;;;;;;;16.40;9.40;;;8.00;55.50;;;;;;5113209;28;20052;-67
2022/04/17 03:17:46;;;;;;;14.48;8.85;;;8.20;55.10;;;;;;5114398;28;20024;-68
2022/04/17 03:20:12;;;;;;;12.68;8.73;;;8.30;54.70;;;;;;5114378;28;20035;-67
2022/04/17 03:22:44;;;;;;;17.48;9.73;;;8.30;54.60;;;;;;5114305;28;20016;-67
2022/04/17 03:25:11;;;;;;;16.67;9.32;;;8.40;54.20;;;;;;5114310;28;20032;-67
2022/04/17 03:27:37;;;;;;;15.77;9.20;;;8.50;53.60;;;;;;5114122;28;20035;-67
2022/04/17 03:30:04;;;;;;;14.27;9.48;;;8.50;53.20;;;;;;5114313;28;20023;-67
2022/04/17 03:32:31;;;;;;;17.73;9.70;;;8.60;53.00;;;;;;5114270;28;20032;-68
2022/04/17 03:34:57;;;;;;;15.95;9.20;;;8.60;52.70;;;;;;5114029;28;20032;-68
2022/04/17 03:37:23;;;;;;;13.55;8.63;;;8.60;52.40;;;;;;5114103;28;20043;-68
2022/04/17 03:39:48;;;;;;;13.70;9.00;;;8.70;52.30;;;;;;5114040;28;20027;-68
2022/04/17 03:42:15;;;;;;;14.85;8.90;;;8.70;51.90;;;;;;5114000;28;20395;-67
2022/04/17 03:44:41;;;;;;;15.70;9.05;;;8.70;51.60;;;;;;5113914;28;20031;-67
2022/04/17 03:47:06;;;;;;;14.88;8.90;;;8.70;51.50;;;;;;5113862;28;20020;-67
2022/04/17 03:49:32;;;;;;;12.55;8.80;;;8.60;52.00;;;;;;5113825;28;20048;-67
2022/04/17 03:52:00;;;;;;;12.95;8.95;;;8.50;52.30;;;;;;5113799;28;20024;-67
2022/04/17 03:54:26;;;;;;;12.57;8.63;;;8.40;52.90;;;;;;5113738;28;20021;-67
2022/04/17 03:56:52;;;;;;;12.75;8.10;;;8.20;53.20;;;;;;5113759;28;20023;-67
2022/04/17 03:59:18;;;;;;;14.02;8.80;;;8.00;53.80;;;;;;5113768;28;20043;-67
2022/04/17 04:01:46;;;;;;;14.85;8.73;;;7.90;54.00;;;;;;5113703;28;20021;-68
2022/04/17 04:04:11;;;;;;;13.93;8.68;;;7.80;54.10;;;;;;5113634;28;20043;-68
2022/04/17 04:06:37;;;;;;;15.43;8.85;;;7.80;54.00;;;;;;5113738;28;20088;-68
2022/04/17 04:09:03;;;;;;;14.05;9.23;;;7.80;54.00;;;;;;5113554;28;20028;-68
2022/04/17 04:11:29;;;;;;;15.30;9.70;;;7.80;53.70;;;;;;5113537;28;20039;-68
2022/04/17 04:13:54;;;;;;;14.60;8.68;;;7.90;54.00;;;;;;5113509;28;20031;-67
2022/04/17 04:16:20;;;;;;;14.18;8.85;;;7.80;54.00;;;;;;5113225;28;20048;-67
2022/04/17 04:18:45;;;;;;;14.02;8.32;;;7.80;54.60;;;;;;5113448;28;20031;-67
2022/04/17 04:21:11;;;;;;;14.07;8.80;;;7.70;54.70;;;;;;5113434;28;20016;-68
2022/04/17 04:23:38;;;;;;;14.48;8.80;;;7.80;54.90;;;;;;5113434;28;20086;-67
2022/04/17 04:26:04;;;;;;;14.55;8.57;;;7.90;54.90;;;;;;5113388;28;20441;-67
2022/04/17 04:28:33;;;;;;;15.13;8.90;;;7.90;54.40;;;;;;5113061;28;20062;-67
2022/04/17 04:31:11;;;;;;;13.13;7.78;;;8.00;54.10;;;;;;5113339;28;20039;-68
2022/04/17 04:33:40;;;;;;;13.23;8.45;;;8.00;54.10;;;;;;5113311;28;20032;-67
2022/04/17 04:36:12;;;;;;;15.48;8.70;;;7.90;53.90;;;;;;5113231;28;20016;-68
2022/04/17 04:38:39;;;;;;;13.90;9.33;;;7.90;54.10;;;;;;5113474;28;20051;-67
2022/04/17 04:41:05;;;;;;;15.52;9.50;;;7.70;54.80;;;;;;5113255;28;20039;-67
2022/04/17 04:43:30;;;;;;;13.77;8.60;;;7.60;55.50;;;;;;5113253;28;20107;-67
2022/04/17 04:46:09;;;;;;;13.38;9.05;;;7.50;56.20;;;;;;5113196;28;20032;-67
2022/04/17 04:51:28;;;;;;;;;;;7.20;57.00;;;;;;5113618;28;20058;-67
2022/04/17 04:53:56;;;;;;;12.48;8.48;;;7.20;56.50;;;;;;5113155;28;19971;-67
2022/04/17 04:56:23;;;;;;;14.88;8.07;;;7.20;56.10;;;;;;5095477;28;20111;-67
2022/04/17 04:58:49;;;;;;;13.70;8.73;;;7.20;56.50;;;;;;5113086;28;20020;-67
2022/04/17 05:01:15;;;;;;;14.55;8.68;;;7.20;56.80;;;;;;5113052;28;20024;-67
2022/04/17 05:03:41;;;;;;;13.60;8.43;;;7.20;57.10;;;;;;5112985;28;20107;-68
2022/04/17 05:06:07;;;;;;;11.55;7.97;;;7.20;57.50;;;;;;5113015;28;20024;-68
2022/04/17 05:08:33;;;;;;;13.23;8.18;;;7.30;57.60;;;;;;5112988;28;20017;-68
2022/04/17 05:10:59;;;;;;;19.67;9.93;;;7.40;57.40;;;;;;5095157;28;20043;-67
2022/04/17 05:13:25;;;;;;;20.75;9.30;;;7.50;57.10;;;;;;5112977;28;20028;-67
2022/04/17 05:15:51;;;;;;;14.50;8.32;;;7.60;57.00;;;;;;5112690;28;20045;-67
2022/04/17 05:18:17;;;;;;;15.73;8.77;;;7.60;56.70;;;;;;5112897;28;20032;-67
2022/04/17 05:20:42;;;;;;;14.30;8.27;;;7.70;56.40;;;;;;5112889;28;20035;-68
2022/04/17 05:23:18;;;;;;;15.43;9.13;;;7.80;56.10;;;;;;5112879;28;20028;-68
2022/04/17 05:25:47;;;;;;;11.52;7.93;;;7.80;55.90;;;;;;5112961;28;20020;-68
2022/04/17 05:28:16;;;;;;;12.43;7.70;;;7.80;56.20;;;;;;5112708;28;20028;-68
2022/04/17 05:30:42;;;;;;;11.45;7.25;;;7.80;56.90;;;;;;5112789;28;20028;-68
2022/04/17 05:33:08;;;;;;;12.98;7.63;;;7.70;58.00;;;;;;5112759;28;20127;-69
2022/04/17 05:35:34;;;;;;;10.45;7.78;;;7.70;57.70;;;;;;5112610;28;20028;-68
2022/04/17 05:38:00;;;;;;;18.52;8.70;;;7.70;58.40;;;;;;5112715;28;20035;-68
2022/04/17 05:40:26;;;;;;;13.45;8.70;;;7.80;57.80;;;;;;5115884;28;20047;-68
2022/04/17 05:42:52;;;;;;;14.55;8.95;;;7.80;57.40;;;;;;5116268;28;20078;-68
2022/04/17 05:45:18;;;;;;;14.00;8.18;;;7.80;57.10;;;;;;5116104;28;20092;-69
2022/04/17 05:47:44;;;;;;;17.75;9.13;;;7.80;57.00;;;;;;5116206;28;20084;-69
2022/04/17 05:50:10;;;;;;;12.50;8.38;;;7.90;57.00;;;;;;5116202;28;20411;-68
2022/04/17 05:52:35;;;;;;;12.85;8.23;;;7.90;56.70;;;;;;5116008;28;20020;-67
2022/04/17 05:55:01;;;;;;;14.18;7.97;;;7.90;56.70;;;;;;5116044;28;20036;-68
2022/04/17 05:57:27;;;;;;;15.15;8.15;;;8.00;56.60;;;;;;5116145;28;20055;-67
2022/04/17 05:59:52;;;;;;;12.40;8.07;;;8.10;56.70;;;;;;5115956;28;20028;-68
2022/04/17 06:02:19;;;;;;;14.02;8.05;;;8.10;57.20;;;;;;5115904;28;20017;-68
2022/04/17 06:04:44;;;;;;;12.00;7.78;;;8.10;57.00;;;;;;5115843;28;20020;-68
2022/04/17 06:07:10;;;;;;;10.40;6.95;;;8.10;56.90;;;;;;5115787;28;20036;-68
2022/04/17 06:09:36;;;;;;;11.48;7.30;;;8.20;56.70;;;;;;5097834;28;20032;-69
2022/04/17 06:12:02;;;;;;;12.75;7.18;;;8.20;56.90;;;;;;5115735;28;20047;-68
2022/04/17 06:14:28;;;;;;;10.60;6.60;;;8.30;57.20;;;;;;5115378;28;20100;-69
2022/04/17 06:16:53;;;;;;;12.07;7.05;;;8.30;57.00;;;;;;5115803;28;20016;-69
2022/04/17 06:19:19;;;;;;;15.93;7.18;;;8.40;57.00;;;;;;5115565;28;20028;-68
2022/04/17 06:21:45;;;;;;;10.68;6.63;;;8.40;56.80;;;;;;5115653;28;20028;-68
2022/04/17 06:24:10;;;;;;;12.43;6.75;;;8.50;56.90;;;;;;5097546;28;20028;-68
2022/04/17 06:26:36;;;;;;;8.65;6.07;;;8.60;57.60;;;;;;5115449;28;20047;-69
2022/04/17 06:29:05;;;;;;;9.20;5.85;;;8.50;56.90;;;;;;5115288;28;20042;-69
2022/04/17 06:31:32;;;;;;;10.88;5.80;;;8.60;56.70;;;;;;5115352;28;20020;-69
2022/04/17 06:33:57;;;;;;;9.95;5.53;;;8.60;57.20;;;;;;5115301;28;20032;-68
2022/04/17 06:36:23;;;;;;;10.48;5.57;;;8.60;57.30;;;;;;5115201;28;20031;-68
2022/04/17 06:38:49;;;;;;;8.45;5.38;;;8.60;56.60;;;;;;5115268;28;20085;-69
2022/04/17 06:41:14;;;;;;;12.40;5.93;;;8.60;57.60;;;;;;5115173;28;20032;-68
2022/04/17 06:43:40;;;;;;;9.57;5.13;;;8.60;58.10;;;;;;5115111;28;20024;-68
2022/04/17 06:46:06;;;;;;;8.98;5.47;;;8.60;57.80;;;;;;5115078;28;20035;-68
2022/04/17 06:48:31;;;;;;;8.82;5.07;;;8.70;57.70;;;;;;5115007;28;20032;-68
2022/04/17 06:50:57;;;;;;;8.48;5.45;;;8.70;57.00;;;;;;5114822;28;20036;-68
2022/04/17 06:53:23;;;;;;;9.90;5.82;;;8.70;57.60;;;;;;5114930;28;20028;-68
2022/04/17 06:55:49;;;;;;;7.80;4.78;;;8.80;58.20;;;;;;5114881;28;20028;-66
2022/04/17 06:58:18;;;;;;;9.50;4.97;;;8.80;58.60;;;;;;5114816;28;20028;-68
2022/04/17 07:00:44;;;;;;;7.75;5.60;;;8.90;56.80;;;;;;5114775;28;20478;-69
2022/04/17 07:03:10;;;;;;;8.23;4.60;;;9.00;57.30;;;;;;5114780;28;20035;-69
2022/04/17 07:05:35;;;;;;;8.85;5.20;;;9.10;56.30;;;;;;5114670;28;20032;-68
2022/04/17 07:08:04;;;;;;;8.65;5.38;;;9.20;56.60;;;;;;5114603;28;20036;-68
2022/04/17 07:10:31;;;;;;;7.88;4.05;;;9.30;58.00;;;;;;5114572;28;20024;-69
2022/04/17 07:12:57;;;;;;;7.25;4.35;;;9.40;57.10;;;;;;5114550;28;20054;-69
2022/04/17 07:15:26;;;;;;;5.93;4.10;;;9.50;55.00;;;;;;5114205;28;20048;-69
2022/04/17 07:17:53;;;;;;;5.75;3.72;;;9.60;56.10;;;;;;5096389;28;20025;-69
2022/04/17 07:20:19;;;;;;;11.70;4.32;;;9.80;55.70;;;;;;5114369;28;20046;-69
2022/04/17 07:22:45;;;;;;;7.28;4.07;;;9.90;53.80;;;;;;5114325;28;20024;-69
2022/04/17 07:25:12;;;;;;;6.28;3.95;;;10.00;53.90;;;;;;5114255;28;20048;-70
2022/04/17 07:27:43;;;;;;;5.20;4.10;;;10.00;54.20;;;;;;5114194;28;20032;-69
2022/04/17 07:30:17;;;;;;;7.90;4.50;;;10.10;53.00;;;;;;5114347;28;20036;-69
2022/04/17 07:32:46;;;;;;;6.13;4.15;;;10.20;54.20;;;;;;5114133;28;20020;-68
2022/04/17 07:35:12;;;;;;;7.55;4.10;;;10.20;53.70;;;;;;5114117;28;20044;-68
2022/04/17 07:37:38;;;;;;;5.25;3.42;;;10.30;51.70;;;;;;5096230;28;20027;-68
2022/04/17 07:40:15;;;;;;;5.32;3.60;;;10.50;52.40;;;;;;5095978;28;20043;-69
2022/04/17 07:42:44;;;;;;;5.60;3.60;;;10.50;52.60;;;;;;5113973;28;20012;-68
2022/04/17 07:45:11;;;;;;;5.45;3.45;;;10.60;50.60;;;;;;5113865;28;20029;-68
2022/04/17 07:47:37;;;;;;;5.35;3.10;;;10.70;50.20;;;;;;5113926;28;20055;-68
2022/04/17 07:50:07;;;;;;;5.20;3.42;;;10.80;49.20;;;;;;5113913;28;20028;-68
2022/04/17 07:52:33;;;;;;;5.38;2.97;;;10.90;47.70;;;;;;5113838;28;20032;-68
2022/04/17 07:54:59;;;;;;;9.38;5.15;;;11.00;48.60;;;;;;5113797;28;20020;-68
2022/04/17 07:57:24;;;;;;;5.03;3.60;;;11.10;46.80;;;;;;5113717;28;20028;-68
2022/04/17 07:59:50;;;;;;;5.57;3.30;;;11.20;46.10;;;;;;5113724;28;20035;-68
2022/04/17 08:02:27;;;;;;;6.22;3.38;;;11.20;46.60;;;;;;5113305;28;20016;-67
2022/04/17 08:04:53;;;;;;;6.55;3.70;;;11.40;47.10;;;;;;5113731;28;20062;-67
2022/04/17 08:07:19;;;;;;;7.78;3.25;;;11.60;47.40;;;;;;5095736;28;20036;-67
2022/04/17 08:09:45;;;;;;;4.68;2.97;;;11.70;46.40;;;;;;5113585;28;20038;-67
2022/04/17 08:12:11;;;;;;;5.10;3.42;;;11.80;47.30;;;;;;5113564;28;20051;-67
2022/04/17 08:14:36;;;;;;;6.03;3.30;;;11.90;47.00;;;;;;5113217;28;20048;-67
2022/04/17 08:17:02;;;;;;;6.22;3.40;;;12.00;46.80;;;;;;5095663;28;20048;-67
2022/04/17 08:19:29;;;;;;;4.35;3.30;;;12.10;47.70;;;;;;5113415;28;20016;-67
2022/04/17 08:21:55;;;;;;;5.68;3.08;;;12.10;45.00;;;;;;5113432;28;20037;-67
2022/04/17 08:24:21;;;;;;;4.60;3.38;;;12.20;44.70;;;;;;5113368;28;20031;-67
2022/04/17 08:26:46;;;;;;;5.53;3.30;;;12.20;44.10;;;;;;5113355;28;20028;-67
2022/04/17 08:29:12;;;;;;;3.88;3.00;;;12.20;43.60;;;;;;5113231;28;20038;-67
2022/04/17 08:31:38;;;;;;;5.07;3.08;;;12.30;43.90;;;;;;5113335;28;20058;-67
2022/04/17 08:34:03;;;;;;;6.93;3.20;;;12.30;43.20;;;;;;5113307;28;20088;-67
2022/04/17 08:36:29;;;;;;;4.70;3.03;;;12.40;43.60;;;;;;5113249;28;20091;-67
2022/04/17 08:38:55;;;;;;;4.20;3.05;;;12.50;45.60;;;;;;5113275;28;20020;-67
2022/04/17 08:41:22;;;;;;;5.28;3.40;;;12.60;44.10;;;;;;5113323;28;20031;-67
2022/04/17 08:43:48;;;;;;;6.43;3.35;;;12.70;43.80;;;;;;5113176;28;20024;-67
2022/04/17 08:46:13;;;;;;;5.38;3.30;;;12.70;43.60;;;;;;5113171;28;20043;-67
2022/04/17 08:48:39;;;;;;;5.45;3.40;;;12.70;44.10;;;;;;5113170;28;20114;-67
2022/04/17 08:51:07;;;;;;;5.30;3.45;;;12.80;45.40;;;;;;5113143;28;20043;-67
2022/04/17 08:53:35;;;;;;;6.18;3.17;;;12.90;45.40;;;;;;5113021;28;20077;-67
2022/04/17 08:56:01;;;;;;;4.68;3.40;;;13.10;44.70;;;;;;5112758;28;20024;-67
2022/04/17 08:58:27;;;;;;;5.10;3.50;;;13.10;43.40;;;;;;5113088;28;20024;-67
2022/04/17 09:00:53;;;;;;;5.68;3.70;;;13.20;44.70;;;;;;5113027;28;20028;-67
2022/04/17 09:03:18;;;;;;;5.20;3.30;;;13.30;41.30;;;;;;5113089;28;20028;-67
2022/04/17 09:05:44;;;;;;;4.93;3.28;;;13.30;41.10;;;;;;5113018;28;20032;-67
2022/04/17 09:08:13;;;;;;;5.50;3.33;;;13.30;42.90;;;;;;5112946;28;20056;-67
2022/04/17 09:10:39;;;;;;;5.68;3.55;;;13.30;42.80;;;;;;5112935;28;20016;-67
2022/04/17 09:13:05;;;;;;;6.50;3.80;;;13.40;42.20;;;;;;5112976;28;20021;-67
2022/04/17 09:15:33;;;;;;;5.30;2.85;;;13.60;42.50;;;;;;5116190;28;20040;-67
2022/04/17 09:17:59;;;;;;;4.40;3.20;;;13.60;41.50;;;;;;5116818;28;20491;-67
2022/04/17 09:20:26;;;;;;;5.65;3.40;;;13.50;41.60;;;;;;5116760;28;20042;-67
2022/04/17 09:22:53;;;;;;;6.95;3.55;;;13.60;42.80;;;;;;5116648;28;20024;-67
2022/04/17 09:25:22;;;;;;;6.32;3.83;;;13.70;41.70;;;;;;5116653;28;20016;-67
2022/04/17 09:28:14;;;;;;;5.25;4.10;;;13.80;44.50;;;;;;5116599;28;20039;-67
2022/04/17 09:30:45;;;;;;;5.78;3.75;;;14.10;43.50;;;;;;5111797;28;20040;-67
2022/04/17 09:33:13;;;;;;;5.50;3.72;;;14.20;43.90;;;;;;5116484;28;20024;-67
2022/04/17 09:35:39;;;;;;;4.45;3.63;;;14.30;43.40;;;;;;5116403;28;20054;-68
2022/04/17 09:38:07;;;;;;;5.50;3.70;;;14.20;42.60;;;;;;5116414;28;20029;-67
2022/04/17 09:40:33;;;;;;;4.90;3.70;;;14.40;43.90;;;;;;5116349;28;20047;-67
2022/04/17 09:43:08;;;;;;;6.10;3.95;;;14.50;44.20;;;;;;5116322;28;20013;-68
2022/04/17 09:45:54;;;;;;;6.57;3.75;;;14.60;42.20;;;;;;5116205;28;20024;-68
2022/04/17 09:48:20;;;;;;;7.32;4.38;;;14.60;42.30;;;;;;5116144;28;20047;-67
2022/04/17 09:50:46;;;;;;;6.07;3.75;;;14.60;41.10;;;;;;5116132;28;20433;-67
2022/04/17 09:53:35;;;;;;;5.20;3.83;;;14.70;42.30;;;;;;5116075;28;20020;-67
2022/04/17 09:56:05;;;;;;;7.75;3.60;;;14.80;40.70;;;;;;5098026;28;20020;-67
2022/04/17 09:58:33;;;;;;;5.50;3.88;;;14.80;41.60;;;;;;5115977;28;20062;-67
2022/04/17 10:00:59;;;;;;;4.55;3.25;;;14.80;40.80;;;;;;5115971;28;20028;-67
2022/04/17 10:03:25;;;;;;;6.20;3.90;;;14.90;38.80;;;;;;5115873;28;20013;-67
2022/04/17 10:05:52;;;;;;;5.43;3.85;;;14.80;39.20;;;;;;5115923;28;20035;-68
2022/04/17 10:08:18;;;;;;;5.95;3.20;;;14.90;39.10;;;;;;5115807;28;20027;-67
2022/04/17 10:10:44;;;;;;;4.30;3.20;;;14.90;39.00;;;;;;5115711;28;20024;-68
2022/04/17 10:13:11;;;;;;;6.28;3.30;;;15.10;41.30;;;;;;5115700;28;20057;-68
2022/04/17 10:15:38;;;;;;;5.22;3.33;;;15.20;41.40;;;;;;5115344;28;20040;-68
2022/04/17 10:18:05;;;;;;;4.68;3.47;;;15.30;40.80;;;;;;5097594;28;20027;-68
2022/04/17 10:20:31;;;;;;;5.38;3.70;;;15.30;39.00;;;;;;5115538;28;20024;-68
2022/04/17 10:23:04;;;;;;;5.22;2.92;;;15.20;38.50;;;;;;5115514;28;20042;-68
2022/04/17 10:25:33;;;;;;;5.47;3.47;;;15.30;39.10;;;;;;5115231;28;20034;-67
2022/04/17 10:28:04;;;;;;;4.95;2.90;;;15.60;41.60;;;;;;5115352;28;20080;-68
2022/04/17 10:31:05;;;;;;;7.57;3.15;;;15.70;39.10;;;;;;5115571;28;20016;-67
2022/04/17 10:34:17;;;;;;;5.78;3.25;;;15.70;36.50;;;;;;5115463;28;20101;-67
2022/04/17 10:37:00;;;;;;;7.75;3.30;;;15.70;37.40;;;;;;5115236;28;20032;-67
2022/04/17 10:39:36;;;;;;;4.35;2.80;;;15.80;40.70;;;;;;5115357;28;20073;-68
2022/04/17 10:42:02;;;;;;;5.28;3.25;;;15.90;37.60;;;;;;5115145;28;20035;-68
2022/04/17 10:44:31;;;;;;;5.60;3.42;;;15.90;37.90;;;;;;5115115;28;20024;-68
2022/04/17 10:46:56;;;;;;;5.05;3.10;;;16.00;37.10;;;;;;5115043;28;20027;-68
2022/04/17 10:49:29;;;;;;;4.45;3.08;;;16.10;37.70;;;;;;5114987;28;20039;-68
2022/04/17 10:51:56;;;;;;;4.93;3.10;;;16.10;35.90;;;;;;5115080;28;20075;-67
2022/04/17 10:54:22;;;;;;;4.13;2.97;;;16.00;36.70;;;;;;5114842;28;20020;-66
2022/04/17 10:56:54;;;;;;;4.38;3.10;;;16.10;35.80;;;;;;5114808;28;20020;-67
2022/04/17 10:59:32;;;;;;;4.93;2.67;;;16.20;35.60;;;;;;5114804;28;20021;-67
2022/04/17 11:02:01;;;;;;;3.92;2.90;;;16.30;35.30;;;;;;5114991;28;20040;-67
2022/04/17 11:04:53;;;;;;;4.65;2.60;;;16.30;35.20;;;;;;5096809;28;20027;-67
2022/04/17 11:07:26;;;;;;;2.90;2.50;;;16.30;32.70;;;;;;5103193;28;20054;-67
2022/04/17 11:10:19;;;;;;;3.88;2.72;;;16.30;34.80;;;;;;5097091;28;20039;-68
2022/04/17 11:12:55;;;;;;;4.47;2.70;;;16.50;34.80;;;;;;5114675;28;20041;-67
2022/04/17 11:15:23;;;;;;;4.82;2.88;;;16.60;33.10;;;;;;5114344;28;20036;-67
2022/04/17 11:17:50;;;;;;;3.65;2.60;;;16.70;35.10;;;;;;5114512;28;20024;-68
2022/04/17 11:20:16;;;;;;;6.55;3.42;;;16.70;35.40;;;;;;5114439;28;20084;-68
2022/04/17 11:22:42;;;;;;;4.97;2.83;;;16.60;33.50;;;;;;5114406;28;20028;-69
2022/04/17 11:25:09;;;;;;;4.80;3.05;;;16.70;34.50;;;;;;5114344;28;20035;-69
2022/04/17 11:27:41;;;;;;;4.93;3.05;;;16.70;35.00;;;;;;5114264;28;20028;-68
2022/04/17 11:30:27;;;;;;;4.23;3.30;;;16.80;35.60;;;;;;5114357;28;20025;-68
2022/04/17 11:32:53;;;;;;;4.00;2.42;;;16.90;33.20;;;;;;5096519;28;20032;-69
2022/04/17 11:35:29;;;;;;;3.67;3.00;;;16.80;32.70;;;;;;5114095;28;20030;-68
2022/04/17 11:38:06;;;;;;;3.85;3.20;;;16.70;34.60;;;;;;5113406;28;20023;-69
2022/04/17 11:40:37;;;;;;;5.07;3.30;;;16.80;35.50;;;;;;5114065;28;20085;-68
2022/04/17 11:43:08;;;;;;;6.35;3.75;;;16.90;34.60;;;;;;5114147;28;20051;-68
2022/04/17 11:45:33;;;;;;;4.38;3.08;;;16.90;33.50;;;;;;5113997;28;20026;-68
2022/04/17 11:48:04;;;;;;;6.35;3.88;;;16.80;34.40;;;;;;5113934;28;20052;-69
2022/04/17 11:50:30;;;;;;;4.22;3.25;;;16.80;33.70;;;;;;5113961;28;20024;-69
2022/04/17 11:53:26;;;;;;;4.95;3.40;;;17.00;37.80;;;;;;5113901;28;20028;-68
2022/04/17 11:55:52;;;;;;;5.60;3.08;;;17.20;35.60;;;;;;5092018;28;20054;-69
2022/04/17 11:58:25;;;;;;;4.05;3.50;;;17.30;34.30;;;;;;5113911;28;20024;-68
2022/04/17 12:01:04;;;;;;;4.20;2.70;;;17.30;33.50;;;;;;5113701;28;20021;-69
2022/04/17 12:03:34;;;;;;;5.05;3.00;;;17.30;31.80;;;;;;5113808;28;20020;-68
2022/04/17 12:06:02;;;;;;;4.68;3.38;;;17.20;30.90;;;;;;5113675;28;20032;-69
2022/04/17 12:08:38;;;;;;;4.03;3.00;;;17.20;30.30;;;;;;5113743;28;20024;-68
2022/04/17 12:11:08;;;;;;;3.85;3.10;;;17.20;32.10;;;;;;5113648;28;20024;-68
2022/04/17 12:13:34;;;;;;;3.42;2.63;;;17.40;32.70;;;;;;5113481;28;20110;-68
2022/04/17 12:16:07;;;;;;;5.95;3.30;;;17.40;34.20;;;;;;5095435;28;20078;-68
2022/04/17 12:18:33;;;;;;;6.18;3.00;;;17.50;34.60;;;;;;5113531;28;20088;-67
2022/04/17 12:21:05;;;;;;;5.80;2.85;;;17.80;32.50;;;;;;5113454;28;20035;-67
2022/04/17 12:23:32;;;;;;;5.30;3.30;;;17.90;32.40;;;;;;5113453;28;20028;-69
2022/04/17 12:25:59;;;;;;;4.28;3.20;;;18.00;32.60;;;;;;5113355;28;20540;-68
2022/04/17 12:28:26;;;;;;;4.85;2.90;;;18.10;30.60;;;;;;5113291;28;20024;-69
2022/04/17 12:30:52;;;;;;;4.18;2.80;;;18.00;29.80;;;;;;5113298;28;20050;-69
2022/04/17 12:33:26;;;;;;;3.65;3.10;;;18.10;31.10;;;;;;5113354;28;20032;-67
2022/04/17 12:36:05;;;;;;;5.00;3.10;;;18.00;29.00;;;;;;5113202;28;20037;-68
2022/04/17 12:38:31;;;;;;;5.80;3.35;;;17.90;30.50;;;;;;5095407;28;20085;-68
2022/04/17 12:40:57;;;;;;;5.95;4.20;;;18.10;31.30;;;;;;5113268;28;20024;-68
2022/04/17 12:43:28;;;;;;;3.65;3.08;;;18.30;32.20;;;;;;5113328;28;20016;-68
2022/04/17 12:46:00;;;;;;;4.60;3.00;;;18.50;32.50;;;;;;5113350;28;20017;-68
2022/04/17 12:48:28;;;;;;;4.93;3.00;;;18.60;29.50;;;;;;5115121;28;20031;-68
2022/04/17 12:50:58;;;;;;;3.58;3.15;;;18.50;30.60;;;;;;5117339;28;20040;-67
2022/04/17 12:53:24;;;;;;;4.20;3.00;;;18.50;29.90;;;;;;5099604;28;20054;-68
2022/04/17 12:55:53;;;;;;;4.57;2.97;;;18.40;29.10;;;;;;5117100;28;20074;-69
2022/04/17 12:58:20;;;;;;;4.38;3.35;;;18.50;31.90;;;;;;5117150;28;20371;-68